Time;durP1;ratioP1;P1;durP2;ratioP2;P2;SDS_P1;SDS_P2;PMS_P1;PMS_P2;Temp;Humidity;BMP_temperature;BMP_pressure;BME280_temperature;BME280_humidity;BME280_pressure;Samples;Min_cycle;Max_cycle;Signal;HPM_P1;HPM_P2
2021/05/16 07:00:23;;;;;;;2.60;0.68;;;;;;;16.70;57.84;97823.72;5829660;23;20024;-74
2021/05/16 07:02:48;;;;;;;2.15;1.05;;;;;;;16.25;58.69;97829.00;4914879;29;20111;-76
2021/05/16 07:05:14;;;;;;;1.50;0.75;;;;;;;17.93;53.07;97817.19;4914930;29;20028;-75
2021/05/16 07:07:40;;;;;;;2.13;0.60;;;;;;;20.19;46.72;97814.16;4897730;29;20095;-77
2021/05/16 07:10:06;;;;;;;2.63;0.80;;;;;;;18.87;49.72;97816.41;4897955;29;20028;-76
2021/05/16 07:12:32;;;;;;;1.03;0.63;;;;;;;17.14;53.82;97820.28;4897613;23;595917;-73
2021/05/16 07:14:57;;;;;;;1.83;0.80;;;;;;;16.17;56.14;97832.84;4896824;29;20021;-73
2021/05/16 07:17:22;;;;;;;5.25;0.82;;;;;;;15.72;56.55;97830.19;4896583;29;20040;-73
2021/05/16 07:19:47;;;;;;;1.20;0.70;;;;;;;15.67;58.55;97833.88;4896765;29;20060;-73
2021/05/16 07:22:13;;;;;;;2.80;0.80;;;;;;;15.41;60.59;97831.75;4896677;29;20489;-73
2021/05/16 07:24:38;;;;;;;1.70;0.90;;;;;;;15.08;59.76;97824.75;4896571;29;20052;-73
2021/05/16 07:27:04;;;;;;;1.52;0.88;;;;;;;14.79;59.10;97822.78;4896514;29;20017;-73
2021/05/16 07:29:31;;;;;;;4.03;0.82;;;;;;;15.29;58.21;97819.38;4896725;29;20501;-73
2021/05/16 07:31:56;;;;;;;1.17;0.80;;;;;;;15.46;57.50;97821.91;4896601;29;20036;-73
2021/05/16 07:34:22;;;;;;;3.10;1.25;;;;;;;15.60;57.02;97815.97;4896610;29;20028;-73
2021/05/16 07:36:47;;;;;;;2.70;0.80;;;;;;;15.22;56.87;97815.38;4896213;29;20033;-73
2021/05/16 07:39:12;;;;;;;6.30;1.00;;;;;;;14.47;61.10;97827.81;4896659;29;20095;-73
2021/05/16 07:41:38;;;;;;;4.63;0.90;;;;;;;14.11;62.06;97831.25;4896528;29;20502;-73
2021/05/16 07:44:05;;;;;;;2.92;0.90;;;;;;;13.99;63.84;97821.44;4896511;29;20036;-73
2021/05/16 07:46:31;;;;;;;3.13;0.82;;;;;;;13.74;63.77;97818.28;4873183;29;20463;-73
2021/05/16 07:48:56;;;;;;;1.63;0.85;;;;;;;13.49;63.79;97819.41;4876505;29;20160;-73
2021/05/16 07:51:21;;;;;;;1.48;0.80;;;;;;;13.42;65.14;97820.59;4879120;29;20612;-73
2021/05/16 07:53:47;;;;;;;1.10;0.70;;;;;;;13.45;64.91;97823.06;4879701;29;20041;-73
2021/05/16 07:56:12;;;;;;;1.00;0.70;;;;;;;13.61;64.85;97826.66;4878814;29;20041;-73
2021/05/16 07:58:37;;;;;;;1.63;0.95;;;;;;;13.70;64.05;97824.56;4879961;29;20028;-73
2021/05/16 08:01:03;;;;;;;1.85;0.90;;;;;;;13.62;63.48;97817.94;4879728;29;20036;-73
2021/05/16 08:03:29;;;;;;;3.45;1.13;;;;;;;13.54;63.16;97820.06;4878961;29;20717;-73
2021/05/16 08:05:54;;;;;;;3.13;0.80;;;;;;;13.79;61.89;97813.72;4879585;29;20032;-73
2021/05/16 08:08:20;;;;;;;2.45;0.90;;;;;;;14.46;61.38;97810.50;4879509;29;20073;-73
2021/05/16 08:10:45;;;;;;;1.77;0.70;;;;;;;14.59;60.44;97815.97;4879705;29;20715;-73
2021/05/16 08:13:12;;;;;;;1.70;0.85;;;;;;;15.09;58.13;97821.25;4879311;29;20041;-73
2021/05/16 08:15:38;;;;;;;3.20;0.70;;;;;;;16.65;52.93;97811.84;4879452;29;20116;-72
2021/05/16 08:18:04;;;;;;;2.40;0.80;;;;;;;18.62;49.15;97797.00;4879228;29;20036;-72
2021/05/16 08:20:30;;;;;;;3.10;0.70;;;;;;;18.40;49.08;97801.97;4879467;29;20085;-74
2021/05/16 08:22:56;;;;;;;1.92;0.88;;;;;;;16.81;51.49;97811.84;4879458;29;20095;-73
2021/05/16 08:25:21;;;;;;;2.33;0.90;;;;;;;16.21;54.27;97823.09;4879206;29;21533;-74
2021/05/16 08:27:46;;;;;;;1.75;0.85;;;;;;;15.57;57.17;97827.44;4879154;29;20032;-72
2021/05/16 08:30:12;;;;;;;3.47;0.80;;;;;;;14.82;60.17;97838.28;4879213;29;20032;-71
2021/05/16 08:32:38;;;;;;;3.33;0.88;;;;;;;14.20;65.28;97842.16;4879316;29;20080;-72
2021/05/16 08:35:04;;;;;;;6.95;1.10;;;;;;;12.99;67.26;97852.81;4879135;29;21362;-71
2021/05/16 08:37:29;;;;;;;4.53;1.15;;;;;;;12.03;73.88;97855.81;4878881;29;20025;-72
2021/05/16 08:39:54;;;;;;;7.38;1.15;;;;;;;11.31;71.75;97848.13;4879197;29;20044;-72
2021/05/16 08:42:20;;;;;;;2.90;1.17;;;;;;;11.05;69.10;97833.47;4878992;29;20028;-72
2021/05/16 08:44:46;;;;;;;1.50;0.90;;;;;;;10.89;68.63;97827.13;4878998;29;20036;-73
2021/05/16 08:47:14;;;;;;;2.38;0.93;;;;;;;11.12;68.79;97830.66;4878619;29;20033;-71
2021/05/16 08:49:40;;;;;;;1.58;0.80;;;;;;;11.43;68.54;97839.03;4878983;29;20028;-71
2021/05/16 08:52:06;;;;;;;3.65;1.10;;;;;;;12.15;70.37;97832.88;4878808;29;20039;-71
2021/05/16 08:54:31;;;;;;;4.93;1.00;;;;;;;12.95;67.22;97826.06;4878739;29;20655;-71
2021/05/16 08:56:57;;;;;;;5.13;0.80;;;;;;;15.09;63.85;97820.41;4874283;29;20028;-72
2021/05/16 08:59:24;;;;;;;4.63;0.60;;;;;;;17.86;53.34;97801.97;4877127;29;20059;-72
2021/05/16 09:01:51;;;;;;;3.15;1.20;;;;;;;21.25;46.12;97801.84;4878257;29;20039;-72
2021/05/16 09:04:34;;;;;;;1.67;0.63;;;;;;;23.65;38.47;97799.88;4878477;29;20047;-72
2021/05/16 09:07:00;;;;;;;1.40;0.63;;;;;;;22.56;39.32;97797.63;4878203;29;20033;-72
2021/05/16 09:09:25;;;;;;;1.77;0.80;;;;;;;21.65;39.88;97798.75;4878539;29;20063;-72
2021/05/16 09:11:57;;;;;;;2.30;0.90;;;;;;;22.63;38.71;97792.66;4878530;29;20151;-72
2021/05/16 09:14:46;;;;;;;2.83;0.70;;;;;;;24.29;37.81;97790.69;4878370;29;20128;-72
2021/05/16 09:17:23;;;;;;;1.60;0.70;;;;;;;25.12;35.62;97783.97;4878053;29;20152;-72
2021/05/16 09:19:51;;;;;;;1.75;0.98;;;;;;;25.15;35.26;97775.75;4878407;29;20466;-72
2021/05/16 09:22:45;;;;;;;3.38;1.00;;;;;;;24.51;36.04;97782.47;4878382;29;20036;-72
2021/05/16 09:25:11;;;;;;;2.35;0.90;;;;;;;23.38;38.02;97791.63;4878505;29;20037;-72
2021/05/16 09:27:37;;;;;;;3.33;0.70;;;;;;;25.15;36.64;97773.09;4877935;29;20130;-72
2021/05/16 09:30:29;;;;;;;5.50;1.23;;;;;;;25.12;34.36;97773.38;4878310;29;20115;-72
2021/05/16 09:33:00;;;;;;;1.45;0.60;;;;;;;26.06;33.50;97775.91;4874636;29;20069;-72
2021/05/16 09:35:33;;;;;;;2.58;1.23;;;;;;;23.40;35.62;97777.28;4878260;29;20030;-72
2021/05/16 09:38:05;;;;;;;2.03;1.00;;;;;;;22.92;38.16;97774.41;4877766;29;21360;-72
2021/05/16 09:40:45;;;;;;;1.98;1.00;;;;;;;23.41;37.40;97770.22;4877956;29;20116;-72
2021/05/16 09:43:17;;;;;;;2.53;1.00;;;;;;;22.22;37.34;97763.44;4878037;29;20041;-72
2021/05/16 09:45:47;;;;;;;3.50;1.10;;;;;;;21.37;38.40;97771.13;4877561;29;20067;-72
2021/05/16 09:48:27;;;;;;;5.03;1.15;;;;;;;21.76;37.96;97756.56;4877453;29;20061;-72
2021/05/16 09:51:24;;;;;;;5.00;1.45;;;;;;;20.33;41.95;97759.69;4878095;29;21396;-73
2021/05/16 09:53:58;;;;;;;10.68;1.20;;;;;;;18.53;43.68;97760.88;4878108;29;20028;-72
2021/05/16 09:56:35;;;;;;;3.30;1.35;;;;;;;18.84;41.41;97764.09;4860910;29;20091;-73
2021/05/16 09:59:09;;;;;;;4.00;1.10;;;;;;;19.05;42.55;97761.78;4877662;29;20448;-74
2021/05/16 10:01:36;;;;;;;5.50;1.35;;;;;;;20.22;40.27;97740.28;4878051;29;20101;-76
2021/05/16 10:04:03;;;;;;;3.53;1.00;;;;;;;19.70;40.65;97749.31;4878884;29;20036;-76
2021/05/16 10:06:30;;;;;;;4.05;1.10;;;;;;;19.82;41.53;97750.22;4878191;29;20033;-76
2021/05/16 10:08:56;;;;;;;3.88;1.40;;;;;;;19.83;42.21;97737.94;4877431;29;20043;-77
2021/05/16 10:11:22;;;;;;;4.00;1.30;;;;;;;19.84;40.64;97739.63;4877544;29;20037;-81
2021/05/16 10:13:52;;;;;;;4.43;1.33;;;;;;;20.59;38.69;97727.03;4876927;29;20127;-73
2021/05/16 10:16:20;;;;;;;4.18;1.17;;;;;;;19.50;40.10;97731.47;4877159;29;20040;-77
2021/05/16 10:18:47;;;;;;;6.53;2.53;;;;;;;19.40;41.52;97725.19;4877144;29;20032;-75
2021/05/16 10:21:13;;;;;;;4.40;1.63;;;;;;;20.10;39.88;97714.88;4877245;29;20043;-75
2021/05/16 10:23:40;;;;;;;3.67;1.65;;;;;;;20.42;37.95;97719.53;4877225;29;20037;-71
2021/05/16 10:26:24;;;;;;;4.47;1.17;;;;;;;19.65;39.02;97714.66;4860070;29;20035;-72
2021/05/16 10:29:07;;;;;;;5.40;1.20;;;;;;;18.97;42.66;97726.41;4876927;29;20029;-70
2021/05/16 10:31:42;;;;;;;4.40;1.27;;;;;;;18.30;40.31;97716.97;4877252;29;20465;-70
2021/05/16 10:34:32;;;;;;;3.78;1.10;;;;;;;18.08;42.80;97718.38;4876822;29;20084;-70
2021/05/16 10:37:00;;;;;;;3.28;1.13;;;;;;;21.10;36.95;97695.03;4876445;29;20495;-70
2021/05/16 10:39:43;;;;;;;3.25;1.10;;;;;;;24.22;34.05;97687.13;4877162;29;20095;-70
2021/05/16 10:42:35;;;;;;;3.22;0.90;;;;;;;24.87;30.42;97682.88;4877018;29;20415;-68
2021/05/16 10:45:05;;;;;;;1.85;1.10;;;;;;;24.29;30.66;97679.47;4876894;29;20115;-69
2021/05/16 10:47:50;;;;;;;9.27;3.40;;;;;;;22.94;33.20;97675.56;4876482;29;20558;-68
2021/05/16 10:50:24;;;;;;;4.45;2.25;;;;;;;21.88;32.10;97674.78;4877034;29;20410;-72
2021/05/16 10:53:08;;;;;;;3.13;1.42;;;;;;;24.35;30.80;97666.50;4877095;29;20116;-69
2021/05/16 10:55:50;;;;;;;8.25;6.50;;;;;;;23.80;30.15;97668.88;4876626;29;20051;-70
2021/05/16 10:58:50;;;;;;;2.65;1.10;;;;;;;21.43;35.11;97670.47;4876631;29;21291;-78
2021/05/16 11:01:18;;;;;;;2.78;1.00;;;;;;;19.52;38.04;97674.41;4877145;29;20434;-74
2021/05/16 11:03:46;;;;;;;4.90;1.58;;;;;;;19.33;38.78;97672.25;4876646;29;20088;-70
2021/05/16 11:06:13;;;;;;;5.07;1.60;;;;;;;19.32;39.33;97670.56;4876464;29;20029;-68
2021/05/16 11:08:39;;;;;;;3.95;1.45;;;;;;;21.34;36.82;97650.13;4876697;29;20510;-67
2021/05/16 11:11:32;;;;;;;8.80;1.57;;;;;;;22.66;33.53;97648.00;4859981;29;20068;-68
2021/05/16 11:13:58;;;;;;;4.85;1.88;;;;;;;20.76;34.45;97646.78;4876290;29;20282;-68
2021/05/16 11:16:23;;;;;;;3.00;1.00;;;;;;;19.31;36.87;97647.88;4876379;29;20830;-73
2021/05/16 11:18:49;;;;;;;3.40;1.30;;;;;;;18.57;39.21;97657.41;4876510;29;20029;-69
2021/05/16 11:21:14;;;;;;;10.43;4.18;;;;;;;18.85;40.15;97642.41;4876780;29;20033;-69
2021/05/16 11:23:41;;;;;;;5.78;1.85;;;;;;;21.96;34.77;97625.72;4876610;29;20036;-69
2021/05/16 11:26:14;;;;;;;9.65;4.30;;;;;;;24.66;30.25;97613.38;4879995;29;20025;-69
2021/05/16 11:28:52;;;;;;;4.55;1.60;;;;;;;25.17;28.10;97612.03;4880521;29;20072;-73
2021/05/16 11:31:20;;;;;;;22.80;10.20;;;;;;;23.59;29.89;97607.28;4880208;29;20108;-71
2021/05/16 11:33:54;;;;;;;6.70;2.95;;;;;;;24.53;31.52;97602.25;4880316;29;20036;-68
2021/05/16 11:36:29;;;;;;;7.63;2.83;;;;;;;25.17;30.71;97585.53;4879676;29;20678;-72
2021/05/16 11:38:57;;;;;;;7.45;1.60;;;;;;;25.56;26.99;97590.59;4880216;29;20727;-72
2021/05/16 11:41:43;;;;;;;2.53;1.00;;;;;;;26.07;29.65;97584.59;4880229;29;20036;-71
2021/05/16 11:44:10;;;;;;;5.32;1.30;;;;;;;27.30;25.49;97578.13;4880230;29;20514;-72
2021/05/16 11:46:41;;;;;;;1.50;0.80;;;;;;;26.28;25.83;97575.44;4862949;29;20034;-71
2021/05/16 11:49:10;;;;;;;2.97;1.08;;;;;;;25.25;26.97;97572.38;4879938;29;20041;-71
2021/05/16 11:51:36;;;;;;;3.90;2.58;;;;;;;24.93;28.11;97571.97;4879570;29;20040;-72
2021/05/16 11:54:03;;;;;;;2.13;1.20;;;;;;;23.94;30.09;97564.44;4879042;29;20037;-71
2021/05/16 11:56:34;;;;;;;5.20;1.15;;;;;;;21.79;30.91;97566.44;4879664;29;20146;-71
2021/05/16 11:59:01;;;;;;;3.33;1.10;;;;;;;21.25;32.54;97562.06;4879453;29;20056;-72
2021/05/16 12:01:28;;;;;;;3.78;1.33;;;;;;;21.21;34.40;97560.63;4879510;29;20503;-72
2021/05/16 12:04:05;;;;;;;2.42;1.50;;;;;;;20.62;34.00;97563.59;4879427;29;20490;-72
2021/05/16 12:06:40;;;;;;;3.08;1.50;;;;;;;20.31;34.84;97559.88;4879236;29;20028;-72
2021/05/16 12:09:17;;;;;;;12.13;6.53;;;;;;;20.07;36.63;97575.72;4879608;29;20039;-71
2021/05/16 12:11:45;;;;;;;6.10;3.05;;;;;;;19.40;36.64;97578.09;4862629;29;20041;-72
2021/05/16 12:14:20;;;;;;;11.23;5.80;;;;;;;19.03;37.93;97580.72;4879208;29;20081;-72
2021/05/16 12:16:53;;;;;;;2.88;1.75;;;;;;;18.90;38.47;97577.31;4879414;29;20037;-72
2021/05/16 12:19:21;;;;;;;7.30;2.05;;;;;;;19.02;38.63;97567.72;4879861;29;20043;-72
2021/05/16 12:21:52;;;;;;;8.00;4.38;;;;;;;19.13;38.69;97566.00;4879315;29;20037;-72
2021/05/16 12:24:23;;;;;;;6.90;2.22;;;;;;;19.26;36.96;97556.28;4879364;29;20028;-72
2021/05/16 12:26:50;;;;;;;12.82;6.63;;;;;;;19.82;37.31;97547.81;4879189;29;20112;-72
2021/05/16 12:29:17;;;;;;;3.53;1.88;;;;;;;20.40;36.54;97542.50;4879059;29;20044;-72
2021/05/16 12:31:43;;;;;;;2.58;1.23;;;;;;;20.29;34.68;97549.44;4879023;29;20037;-72
2021/05/16 12:34:09;;;;;;;2.45;1.00;;;;;;;20.14;34.82;97553.25;4879273;29;20077;-72
2021/05/16 12:36:45;;;;;;;4.75;1.38;;;;;;;19.82;37.25;97553.06;4878269;29;20124;-72
2021/05/16 12:39:11;;;;;;;2.53;0.93;;;;;;;19.32;38.58;97559.41;4879001;29;20237;-72
2021/05/16 12:41:36;;;;;;;5.00;1.80;;;;;;;19.33;37.64;97561.09;4878681;29;21123;-72
2021/05/16 12:44:11;;;;;;;6.13;1.45;;;;;;;19.86;36.16;97558.94;4879041;29;20029;-73
2021/05/16 12:46:38;;;;;;;2.83;1.45;;;;;;;19.92;36.16;97553.19;4878972;29;20025;-72
2021/05/16 12:49:04;;;;;;;2.67;1.13;;;;;;;18.96;37.38;97555.88;4878839;29;20036;-71
2021/05/16 12:51:29;;;;;;;4.57;1.20;;;;;;;19.39;35.77;97555.38;4878721;29;20037;-72
2021/05/16 12:54:14;;;;;;;4.00;1.48;;;;;;;19.57;36.44;97543.50;4879109;29;20448;-72
2021/05/16 12:56:40;;;;;;;11.35;4.75;;;;;;;19.25;37.50;97538.84;4878663;29;20033;-72
2021/05/16 12:59:08;;;;;;;3.75;1.70;;;;;;;19.50;38.22;97518.66;4878748;29;21384;-72
2021/05/16 13:01:36;;;;;;;3.97;1.17;;;;;;;19.97;37.57;97525.63;4878333;29;20096;-74
2021/05/16 13:04:26;;;;;;;4.22;1.15;;;;;;;20.21;36.07;97533.44;4878381;29;20034;-74
2021/05/16 13:06:55;;;;;;;1.92;1.17;;;;;;;20.02;35.43;97523.47;4878021;29;21048;-75
2021/05/16 13:09:28;;;;;;;2.58;0.80;;;;;;;19.91;37.86;97539.22;4861817;29;20105;-74
2021/05/16 13:11:57;;;;;;;2.97;1.23;;;;;;;19.68;37.95;97529.63;4878423;29;20025;-75
2021/05/16 13:14:30;;;;;;;3.67;1.02;;;;;;;19.41;37.02;97529.84;4878935;29;20084;-73
2021/05/16 13:17:10;;;;;;;3.28;1.30;;;;;;;19.32;37.64;97527.91;4878273;29;20115;-74
2021/05/16 13:19:43;;;;;;;3.97;1.13;;;;;;;18.74;37.18;97523.28;4878181;29;20025;-74
2021/05/16 13:22:41;;;;;;;5.03;1.08;;;;;;;18.23;37.87;97533.84;4878093;29;20040;-74
2021/05/16 13:25:09;;;;;;;3.58;1.38;;;;;;;18.09;38.56;97540.97;4878402;29;20024;-74
2021/05/16 13:27:37;;;;;;;3.75;0.88;;;;;;;18.29;40.06;97539.59;4877102;29;20490;-74
2021/05/16 13:30:06;;;;;;;1.48;0.80;;;;;;;17.92;42.92;97549.97;4878000;29;20092;-72
2021/05/16 13:32:31;;;;;;;2.35;1.23;;;;;;;16.67;47.39;97546.66;4878015;29;20057;-72
2021/05/16 13:34:56;;;;;;;7.57;2.05;;;;;;;16.44;48.34;97553.31;4876713;29;20036;-72
2021/05/16 13:37:22;;;;;;;5.43;1.23;;;;;;;15.84;49.02;97552.59;4876289;29;20480;-72
2021/05/16 13:39:47;;;;;;;2.75;0.93;;;;;;;16.10;48.72;97538.84;4876075;29;20111;-72
2021/05/16 13:42:12;;;;;;;3.42;1.23;;;;;;;16.65;48.38;97538.06;4876036;29;20036;-73
2021/05/16 13:44:38;;;;;;;3.17;1.00;;;;;;;16.56;49.29;97528.16;4876343;29;20107;-72
2021/05/16 13:47:04;;;;;;;3.05;1.08;;;;;;;16.32;49.39;97516.63;4877158;29;20462;-72
2021/05/16 13:49:32;;;;;;;3.80;1.25;;;;;;;16.42;50.17;97507.28;4877349;29;20043;-72
2021/05/16 13:51:58;;;;;;;2.30;1.33;;;;;;;16.58;48.52;97491.47;4877708;29;20041;-73
2021/05/16 13:54:25;;;;;;;3.55;1.30;;;;;;;17.28;47.87;97501.84;4877605;29;20061;-72
2021/05/16 13:56:52;;;;;;;3.38;1.10;;;;;;;17.83;46.14;97492.94;4877264;29;20043;-73
2021/05/16 13:59:18;;;;;;;5.65;1.92;;;;;;;17.79;43.36;97499.31;4876854;29;20029;-72
2021/05/16 14:01:44;;;;;;;2.10;1.05;;;;;;;16.57;47.22;97503.69;4869754;29;20032;-73
2021/05/16 14:04:11;;;;;;;5.30;1.65;;;;;;;15.94;50.24;97507.56;4877401;29;20085;-72
2021/05/16 14:06:37;;;;;;;8.27;1.20;;;;;;;15.59;52.59;97501.78;4877279;29;20119;-73
2021/05/16 14:09:06;;;;;;;4.22;1.73;;;;;;;15.72;52.72;97490.66;4877544;29;20039;-72
2021/05/16 14:11:31;;;;;;;3.75;1.30;;;;;;;15.56;53.39;97491.50;4877489;29;20052;-72
2021/05/16 14:13:59;;;;;;;3.05;1.20;;;;;;;15.58;52.87;97504.50;4877095;29;20103;-72
2021/05/16 14:16:25;;;;;;;2.95;1.67;;;;;;;15.38;53.16;97508.28;4877024;29;20111;-72
2021/05/16 14:18:51;;;;;;;3.55;1.60;;;;;;;15.50;54.42;97517.97;4860591;29;20032;-72
2021/05/16 14:21:18;;;;;;;3.45;1.38;;;;;;;15.25;55.96;97522.94;4877495;29;20083;-72
2021/05/16 14:23:45;;;;;;;4.20;1.25;;;;;;;14.95;58.87;97542.00;4877314;29;20051;-72
2021/05/16 14:26:10;;;;;;;4.30;1.13;;;;;;;14.91;59.55;97545.72;4877142;29;20063;-72
2021/05/16 14:28:35;;;;;;;6.00;1.10;;;;;;;15.28;62.10;97574.94;4877208;29;20112;-72
2021/05/16 14:31:01;;;;;;;7.50;1.10;;;;;;;15.27;63.47;97573.25;4877047;29;20379;-72
2021/05/16 14:33:26;;;;;;;6.07;1.27;;;;;;;14.54;64.72;97560.72;4877050;29;20135;-73
2021/05/16 14:35:51;;;;;;;3.60;1.58;;;;;;;14.92;61.54;97552.59;4876920;29;20075;-73
2021/05/16 14:38:17;;;;;;;28.95;12.27;;;;;;;14.88;61.34;97545.88;4877150;29;20108;-73
2021/05/16 14:40:42;;;;;;;17.42;6.63;;;;;;;15.11;62.92;97537.59;4876977;29;20048;-73
2021/05/16 14:43:09;;;;;;;7.55;3.53;;;;;;;15.53;61.36;97507.38;4876774;29;20037;-73
2021/05/16 14:45:35;;;;;;;3.95;1.40;;;;;;;15.96;57.68;97477.91;4876870;29;20070;-73
2021/05/16 14:48:00;;;;;;;5.00;1.45;;;;;;;16.34;57.20;97478.13;4876316;29;20032;-73
2021/05/16 14:50:40;;;;;;;2.72;1.10;;;;;;;16.63;55.00;97495.50;4859993;29;20043;-73
2021/05/16 14:53:05;;;;;;;5.78;1.52;;;;;;;16.73;55.26;97515.84;4876974;29;20033;-72
2021/05/16 14:55:30;;;;;;;6.45;1.83;;;;;;;16.64;57.32;97520.69;4876823;29;20480;-72
2021/05/16 14:57:56;;;;;;;2.85;1.40;;;;;;;17.29;54.97;97519.22;4877017;29;20065;-72
2021/05/16 15:00:21;;;;;;;5.47;1.10;;;;;;;16.88;55.35;97526.19;4882053;29;20661;-72
2021/05/16 15:02:46;;;;;;;3.00;1.45;;;;;;;16.76;56.65;97529.56;4886060;29;20448;-72
2021/05/16 15:05:12;;;;;;;6.65;1.75;;;;;;;17.23;54.78;97519.63;4883247;29;20498;-71
2021/05/16 15:07:37;;;;;;;7.20;1.60;;;;;;;16.32;56.94;97521.84;4882710;29;20499;-74
2021/05/16 15:10:03;;;;;;;5.03;1.95;;;;;;;17.27;54.52;97515.88;4883081;29;20032;-74
2021/05/16 15:12:29;;;;;;;3.78;1.90;;;;;;;17.47;55.42;97515.41;4882794;29;20036;-71
2021/05/16 15:14:55;;;;;;;7.50;1.48;;;;;;;17.08;52.90;97513.59;4882986;29;20055;-71
2021/05/16 15:17:23;;;;;;;5.00;1.60;;;;;;;16.75;52.82;97506.97;4882427;29;20037;-71
2021/05/16 15:19:50;;;;;;;3.35;1.50;;;;;;;16.74;51.21;97505.28;4882770;29;20046;-71
2021/05/16 15:22:16;;;;;;;1.65;1.27;;;;;;;16.62;50.32;97496.41;4882840;29;20494;-72
2021/05/16 15:24:41;;;;;;;2.92;1.70;;;;;;;16.51;49.55;97491.00;4882608;29;20298;-72
2021/05/16 15:27:06;;;;;;;4.13;1.55;;;;;;;16.56;51.67;97496.78;4882533;29;20028;-72
2021/05/16 15:29:33;;;;;;;1.65;1.10;;;;;;;16.22;50.00;97499.81;4882769;29;20041;-71
2021/05/16 15:31:59;;;;;;;3.92;1.20;;;;;;;16.14;51.18;97498.50;4882825;29;20064;-71
2021/05/16 15:34:24;;;;;;;5.10;2.08;;;;;;;16.42;51.33;97491.59;4882845;29;20059;-72
2021/05/16 15:36:50;;;;;;;8.00;1.70;;;;;;;16.91;50.87;97488.50;4882303;29;20111;-73
2021/05/16 15:39:15;;;;;;;3.50;1.55;;;;;;;16.64;50.83;97480.63;4882469;29;20036;-73
2021/05/16 15:41:40;;;;;;;2.20;1.33;;;;;;;16.39;50.96;97476.06;4882750;29;20487;-73
2021/05/16 15:44:06;;;;;;;1.98;1.17;;;;;;;15.83;51.52;97488.25;4882851;29;20037;-71
2021/05/16 15:46:31;;;;;;;2.88;1.23;;;;;;;15.65;52.18;97505.84;4882353;29;20080;-71
2021/05/16 15:48:57;;;;;;;6.28;1.08;;;;;;;15.51;52.68;97493.56;4882521;29;20025;-71
2021/05/16 15:51:22;;;;;;;3.20;1.23;;;;;;;15.44;52.90;97502.69;4882702;29;20040;-71
2021/05/16 15:53:47;;;;;;;1.40;0.80;;;;;;;15.40;53.64;97509.84;4882432;29;20256;-71
2021/05/16 15:56:13;;;;;;;1.60;0.88;;;;;;;15.53;52.80;97507.38;4882439;29;20028;-73
2021/05/16 15:58:38;;;;;;;1.85;1.00;;;;;;;15.82;52.88;97495.25;4882346;29;20039;-73
2021/05/16 16:01:04;;;;;;;2.85;1.23;;;;;;;16.03;51.38;97500.09;4882545;29;20025;-73
2021/05/16 16:03:29;;;;;;;1.52;0.85;;;;;;;16.31;50.39;97494.03;4882776;29;20033;-74
2021/05/16 16:05:55;;;;;;;1.58;1.10;;;;;;;16.15;51.22;97494.97;4882571;29;20380;-73
2021/05/16 16:08:20;;;;;;;5.25;2.97;;;;;;;16.10;51.02;97483.97;4865396;29;20546;-72
2021/05/16 16:10:46;;;;;;;2.30;1.55;;;;;;;16.47;50.28;97484.28;4880441;29;20032;-72
2021/05/16 16:13:11;;;;;;;3.55;1.58;;;;;;;16.41;48.49;97479.47;4879406;29;20068;-72
2021/05/16 16:15:36;;;;;;;1.10;0.70;;;;;;;16.72;48.25;97472.31;4879301;29;20032;-72
2021/05/16 16:18:02;;;;;;;1.35;0.60;;;;;;;16.80;47.07;97467.44;4879290;29;20037;-72
2021/05/16 16:20:28;;;;;;;1.83;1.05;;;;;;;16.78;48.29;97458.84;4879393;29;20040;-71
2021/05/16 16:22:53;;;;;;;3.63;1.20;;;;;;;16.75;48.29;97456.44;4879164;29;20041;-71
2021/05/16 16:25:19;;;;;;;3.08;1.20;;;;;;;16.47;48.27;97460.75;4879347;29;20036;-71
2021/05/16 16:27:45;;;;;;;2.58;1.30;;;;;;;16.36;49.12;97452.75;4878292;29;20172;-71
2021/05/16 16:30:11;;;;;;;1.30;0.70;;;;;;;16.40;49.75;97441.19;4877236;29;20044;-71
2021/05/16 16:32:37;;;;;;;2.53;0.90;;;;;;;16.63;48.02;97440.56;4877725;29;20059;-71
2021/05/16 16:35:04;;;;;;;2.42;1.30;;;;;;;16.76;47.87;97450.25;4877377;29;20032;-71
2021/05/16 16:37:30;;;;;;;0.95;0.70;;;;;;;16.57;46.64;97427.84;4877268;29;20037;-72
2021/05/16 16:39:56;;;;;;;3.15;1.33;;;;;;;16.73;46.40;97433.00;4877446;29;20032;-71
2021/05/16 16:42:22;;;;;;;2.45;0.90;;;;;;;16.63;46.10;97437.09;4877326;29;20035;-72
2021/05/16 16:44:47;;;;;;;2.03;1.30;;;;;;;16.08;46.29;97424.88;4878635;29;20752;-71
2021/05/16 16:47:13;;;;;;;1.63;1.40;;;;;;;16.36;46.00;97429.22;4878831;29;20715;-71
2021/05/16 16:49:38;;;;;;;1.15;0.85;;;;;;;16.44;46.18;97422.59;4878765;29;20060;-72
2021/05/16 16:52:04;;;;;;;1.08;0.80;;;;;;;16.38;46.00;97417.72;4878480;29;21005;-71
2021/05/16 16:54:29;;;;;;;0.75;0.75;;;;;;;16.57;46.19;97427.84;4878753;29;20077;-71
2021/05/16 16:56:54;;;;;;;0.77;0.73;;;;;;;16.63;46.33;97430.09;4878321;29;20075;-71
2021/05/16 16:59:20;;;;;;;0.50;0.50;;;;;;;16.01;47.13;97419.22;4878553;29;20060;-71
2021/05/16 17:01:45;;;;;;;7.32;5.20;;;;;;;15.72;48.61;97425.38;4878308;29;20127;-71
2021/05/16 17:04:10;;;;;;;2.08;0.50;;;;;;;15.49;48.53;97427.56;4878758;29;20058;-71
2021/05/16 17:06:36;;;;;;;4.57;0.60;;;;;;;15.49;48.42;97427.56;4878374;29;20425;-72
2021/05/16 17:09:05;;;;;;;2.45;0.65;;;;;;;15.72;48.29;97430.59;4878788;29;20502;-71
2021/05/16 17:11:31;;;;;;;2.30;1.17;;;;;;;16.32;47.49;97427.75;4878367;29;20028;-72
2021/05/16 17:13:56;;;;;;;0.40;0.38;;;;;;;16.18;46.74;97429.44;4878178;29;20418;-71
2021/05/16 17:16:22;;;;;;;0.95;0.70;;;;;;;16.02;48.07;97420.88;4877975;29;20033;-71
2021/05/16 17:18:47;;;;;;;1.42;0.60;;;;;;;16.08;47.65;97428.34;4878551;29;20029;-71
2021/05/16 17:21:13;;;;;;;0.60;0.50;;;;;;;15.99;48.61;97431.50;4878198;29;20033;-72
2021/05/16 17:23:38;;;;;;;0.60;0.50;;;;;;;15.78;48.84;97441.50;4878129;29;20522;-72
2021/05/16 17:26:04;;;;;;;0.50;0.50;;;;;;;15.66;48.99;97437.88;4878016;29;20510;-72
2021/05/16 17:28:29;;;;;;;1.38;0.60;;;;;;;15.49;49.20;97440.59;4878053;29;20035;-71
2021/05/16 17:30:54;;;;;;;0.60;0.60;;;;;;;15.27;50.13;97438.41;4877832;29;20467;-71
2021/05/16 17:33:24;;;;;;;1.67;0.73;;;;;;;15.13;50.66;97438.38;4878280;29;20100;-71
2021/05/16 17:35:51;;;;;;;2.92;0.93;;;;;;;15.03;51.80;97435.44;4877711;29;20040;-72
2021/05/16 17:38:16;;;;;;;2.50;0.60;;;;;;;14.93;52.01;97439.50;4877817;29;20033;-71
2021/05/16 17:40:42;;;;;;;1.42;0.75;;;;;;;14.87;51.72;97437.25;4877891;29;20028;-71
2021/05/16 17:43:07;;;;;;;0.68;0.60;;;;;;;14.80;51.76;97443.75;4877751;29;20426;-71
2021/05/16 17:45:33;;;;;;;12.00;8.27;;;;;;;14.74;52.16;97451.91;4877642;29;20513;-71
2021/05/16 17:48:01;;;;;;;1.02;0.93;;;;;;;14.75;51.75;97459.66;4877412;29;20048;-71
2021/05/16 17:50:27;;;;;;;1.13;0.90;;;;;;;14.73;51.88;97458.06;4877869;29;20032;-72
2021/05/16 17:52:53;;;;;;;1.67;0.95;;;;;;;14.73;52.18;97460.66;4860770;29;20409;-71
2021/05/16 17:55:18;;;;;;;0.47;0.47;;;;;;;14.67;52.71;97458.41;4877712;29;20040;-71
2021/05/16 17:57:43;;;;;;;1.90;0.60;;;;;;;14.67;52.51;97453.19;4877223;29;20033;-72
2021/05/16 18:00:10;;;;;;;0.68;0.63;;;;;;;14.72;52.27;97459.00;4877539;29;20037;-71
2021/05/16 18:02:42;;;;;;;3.53;0.80;;;;;;;14.63;52.68;97458.56;4860490;29;20119;-72
2021/05/16 18:05:10;;;;;;;1.23;1.02;;;;;;;14.61;53.70;97457.81;4877621;29;20028;-71
2021/05/16 18:07:36;;;;;;;1.42;0.88;;;;;;;14.66;53.27;97457.56;4877129;29;20032;-69
2021/05/16 18:10:04;;;;;;;2.60;1.00;;;;;;;14.68;53.95;97470.50;4877553;29;20033;-72
2021/05/16 18:12:29;;;;;;;0.95;0.80;;;;;;;14.58;53.02;97465.81;4877041;29;20036;-71
2021/05/16 18:14:54;;;;;;;2.58;2.38;;;;;;;14.54;52.66;97474.72;4877482;29;20501;-72
2021/05/16 18:17:20;;;;;;;0.52;0.50;;;;;;;14.51;52.96;97467.09;4877171;29;20036;-72
2021/05/16 18:19:45;;;;;;;2.08;1.08;;;;;;;14.47;52.78;97468.13;4877149;29;20464;-72
2021/05/16 18:22:10;;;;;;;5.47;2.95;;;;;;;14.51;52.96;97474.91;4877178;29;20037;-75
2021/05/16 18:24:36;;;;;;;1.10;0.90;;;;;;;14.51;52.63;97469.69;4877426;29;20111;-74
2021/05/16 18:27:01;;;;;;;4.72;3.38;;;;;;;14.46;53.42;97476.03;4876771;29;20108;-71
2021/05/16 18:29:26;;;;;;;4.13;2.03;;;;;;;14.46;53.13;97473.44;4877214;29;20585;-71
2021/05/16 18:31:52;;;;;;;0.52;0.45;;;;;;;14.36;53.80;97471.34;4877096;29;20162;-71
2021/05/16 18:34:18;;;;;;;8.23;5.18;;;;;;;14.37;53.36;97461.75;4876511;29;20032;-70
2021/05/16 18:36:44;;;;;;;1.45;0.98;;;;;;;14.37;53.64;97472.16;4876833;29;20402;-75
2021/05/16 18:39:10;;;;;;;0.70;0.70;;;;;;;14.32;54.10;97468.97;4876929;29;21373;-68